Portada
METAR-TAF:

METAR-TAF

Aeroports :

Phnom Penh, Cambodja

latitud: 11-33N, longitud: 104-51E, altitud: 10 m

Observació

L'informe es va fer fa 43 minuts, a les 13:30 UTC
Vent calma
Temperatura 32°C
Humitat 46%
Pressió 1010 hPa
Visibilitat: 9000 m
Escasses núvols a una alçada de 1700 ft

METAR: VDPP 261330Z 00000KT 9000 FEW017 32/19 Q1010

Hora: 21:13 (14:13 UTC)

Pronòstic

L'informe es va fer fa 3 hores i 13 minuts, a les 11:00 UTC
Pronòstic vàlid del 26 a les 12 UTC al 27 a les 06 UTC
Vent 6 kt del Nord-Est
Visibilitat 10 km o més
Núvols disperses a una alçada de 1700 ft

TAF: VDPP 261100Z 2612/2706 05006KT 9999 SCT017

Observacions i pronòstics meteorològics de més de 4000 aeroports (METAR i TAF).

Les estacions disponibles són els punts grocs i vermells al mapa.

Posi el ratolí al punt desitjat per veure el nom de l'estació.

Feu clic per veure les observacions i els pronòstics meteorològics.

Per canviar el mapa: feu clic els botons verds amb una creu de color negre per apropar; al botó verd amb un guió per allunyar la imatge; o en les fletxes verdes per a mapes adjacents.


METAR-TAF: